Time;durP1;ratioP1;P1;durP2;ratioP2;P2;SDS_P1;SDS_P2;PMS_P1;PMS_P2;Temp;Humidity;BMP_temperature;BMP_pressure;BME280_temperature;BME280_humidity;BME280_pressure;Samples;Min_cycle;Max_cycle;Signal;HPM_P1;HPM_P2
2022/11/18 00:02:29;;;;;;;13.73;6.78;;;;;;;8.17;100.00;98965.59;5001117;28;20074;-80
2022/11/18 00:04:56;;;;;;;11.23;6.20;;;;;;;8.11;100.00;98961.13;5001309;28;20054;-80
2022/11/18 00:07:23;;;;;;;11.05;6.10;;;;;;;8.16;100.00;98965.78;5000748;28;20149;-80
2022/11/18 00:09:51;;;;;;;13.10;5.90;;;;;;;8.16;100.00;98968.41;4999433;28;20074;-80
2022/11/18 00:15:04;;;;;;;10.68;5.90;;;;;;;8.11;100.00;98981.97;4999414;28;20057;-79
2022/11/18 00:17:32;;;;;;;13.18;6.00;;;;;;;8.08;100.00;98971.91;4996851;28;20140;-79
2022/11/18 00:19:59;;;;;;;11.32;5.60;;;;;;;8.05;100.00;98966.25;4995938;28;20088;-77
2022/11/18 00:22:25;;;;;;;10.27;6.15;;;;;;;8.03;100.00;98968.25;4996006;28;20411;-78
2022/11/18 00:24:52;;;;;;;10.00;6.18;;;;;;;7.99;100.00;98967.78;4996311;28;20133;-78
2022/11/18 00:27:19;;;;;;;10.48;5.93;;;;;;;7.94;100.00;98970.94;4999402;28;20078;-79
2022/11/18 00:29:45;;;;;;;12.90;6.05;;;;;;;7.94;100.00;98980.53;4998199;28;20050;-79
2022/11/18 00:32:13;;;;;;;11.07;5.72;;;;;;;7.94;100.00;98977.94;4999769;28;20102;-78
2022/11/18 00:34:41;;;;;;;9.63;5.70;;;;;;;7.93;100.00;98978.94;5000518;28;20129;-81
2022/11/18 00:37:07;;;;;;;10.10;6.13;;;;;;;7.96;100.00;98981.97;5000080;28;20126;-79
2022/11/18 00:39:34;;;;;;;14.93;6.00;;;;;;;7.97;100.00;98981.00;4998714;28;20149;-79
2022/11/18 00:44:45;;;;;;;9.80;5.78;;;;;;;8.06;100.00;98979.09;5002220;28;20073;-80
2022/11/18 00:47:13;;;;;;;11.93;6.03;;;;;;;8.09;100.00;98976.13;5002284;28;20050;-79
2022/11/18 00:49:40;;;;;;;11.50;5.63;;;;;;;8.04;100.00;98973.25;5000986;28;20085;-79
2022/11/18 00:52:06;;;;;;;11.25;5.38;;;;;;;8.13;100.00;98971.34;5002539;28;20092;-79
2022/11/18 00:54:33;;;;;;;10.60;6.20;;;;;;;8.06;100.00;98983.47;5000757;28;20078;-79
2022/11/18 00:56:59;;;;;;;10.20;6.25;;;;;;;8.05;100.00;98977.47;5000765;28;20065;-79
2022/11/18 00:59:26;;;;;;;14.43;5.82;;;;;;;8.01;100.00;98983.25;4999611;28;20077;-80
2022/11/18 01:01:53;;;;;;;11.90;6.00;;;;;;;8.03;100.00;98995.09;4999039;28;20133;-79
2022/11/18 01:04:21;;;;;;;10.70;5.50;;;;;;;8.07;100.00;98991.13;4998213;28;20086;-79
2022/11/18 01:06:47;;;;;;;9.88;5.70;;;;;;;8.19;100.00;99002.72;4999015;28;20216;-79
2022/11/18 01:09:14;;;;;;;9.88;5.50;;;;;;;8.18;100.00;98998.50;4998733;28;20089;-79
2022/11/18 01:14:25;;;;;;;10.13;6.00;;;;;;;8.14;100.00;99002.44;4991259;28;20077;-79
2022/11/18 01:16:54;;;;;;;13.52;5.53;;;;;;;8.18;100.00;99018.53;5002067;28;20082;-79
2022/11/18 01:19:22;;;;;;;13.18;5.32;;;;;;;8.19;100.00;99020.94;4998622;28;20076;-79
2022/11/18 01:21:49;;;;;;;11.68;6.63;;;;;;;8.20;100.00;99022.56;4998695;28;20089;-79
2022/11/18 01:24:16;;;;;;;11.13;5.10;;;;;;;8.18;100.00;99013.31;4998118;28;20050;-80
2022/11/18 01:26:42;;;;;;;10.32;5.63;;;;;;;8.21;100.00;99018.97;4998768;28;20090;-79
2022/11/18 01:29:10;;;;;;;11.88;5.63;;;;;;;8.15;100.00;99017.09;4997920;28;20079;-79
2022/11/18 01:31:38;;;;;;;11.05;5.63;;;;;;;8.19;100.00;99020.94;4997964;28;20516;-79
2022/11/18 01:34:04;;;;;;;12.20;5.68;;;;;;;8.18;100.00;99028.94;4998844;28;20120;-79
2022/11/18 01:36:32;;;;;;;11.20;5.97;;;;;;;8.16;100.00;99025.72;4997416;28;20497;-79
2022/11/18 01:38:59;;;;;;;14.38;5.88;;;;;;;8.17;100.00;99028.13;4999266;28;20106;-80
2022/11/18 01:41:27;;;;;;;11.50;6.55;;;;;;;8.15;100.00;99019.69;4997242;28;20085;-80
2022/11/18 01:43:55;;;;;;;11.23;5.97;;;;;;;8.21;100.00;99026.78;4996746;28;20073;-82
2022/11/18 01:46:25;;;;;;;16.42;6.20;;;;;;;8.21;100.00;99020.78;4999520;28;20054;-80
2022/11/18 01:48:55;;;;;;;11.40;5.78;;;;;;;8.20;100.00;99030.38;4997053;28;20136;-79
2022/11/18 01:51:28;;;;;;;12.45;6.55;;;;;;;8.20;100.00;99029.56;4997976;28;20050;-80
2022/11/18 01:54:02;;;;;;;15.52;6.55;;;;;;;8.18;100.00;99034.97;4997879;28;20054;-81
2022/11/18 01:56:37;;;;;;;11.88;6.85;;;;;;;8.19;100.00;99036.59;4996955;28;20054;-80
2022/11/18 01:59:08;;;;;;;13.65;6.60;;;;;;;8.18;100.00;99031.56;4996305;28;20052;-79
2022/11/18 02:01:34;;;;;;;15.90;7.00;;;;;;;8.19;100.00;99036.59;4996622;28;20512;-80
2022/11/18 02:04:01;;;;;;;12.50;6.80;;;;;;;8.23;100.00;99042.25;4997788;28;20066;-80
2022/11/18 02:06:31;;;;;;;11.38;7.03;;;;;;;8.20;100.00;99047.81;4997132;28;20490;-80
2022/11/18 02:12:18;;;;;;;12.55;7.05;;;;;;;8.13;100.00;99032.09;4995148;28;20058;-79
2022/11/18 02:14:46;;;;;;;12.68;6.80;;;;;;;8.22;100.00;99053.66;4996786;28;20050;-79
2022/11/18 02:17:27;;;;;;;16.13;7.28;;;;;;;8.22;100.00;99054.47;4997050;28;20489;-79
2022/11/18 02:20:18;;;;;;;12.88;6.57;;;;;;;8.20;100.00;99058.25;4979041;28;20062;-79
2022/11/18 02:23:07;;;;;;;12.82;6.50;;;;;;;8.19;100.00;99065.25;4982013;28;20085;-79
2022/11/18 02:25:47;;;;;;;9.20;6.43;;;;;;;8.21;100.00;99060.66;4997173;28;20509;-80
2022/11/18 02:28:35;;;;;;;13.52;6.65;;;;;;;8.26;100.00;99066.16;4997002;28;20108;-79
2022/11/18 02:31:08;;;;;;;14.30;6.35;;;;;;;8.25;100.00;99068.94;4997032;28;20049;-78
2022/11/18 02:33:43;;;;;;;11.45;6.07;;;;;;;8.23;100.00;99074.31;4996397;28;20500;-79
2022/11/18 02:36:16;;;;;;;10.02;5.50;;;;;;;8.15;100.00;99078.81;4996958;28;20155;-80
2022/11/18 02:38:46;;;;;;;11.90;6.25;;;;;;;8.13;100.00;99084.19;4996350;28;20082;-80
2022/11/18 02:41:16;;;;;;;12.43;6.40;;;;;;;8.18;100.00;99088.88;4996896;28;20141;-79
2022/11/18 02:43:48;;;;;;;13.75;6.55;;;;;;;8.13;100.00;99089.41;4997261;28;20133;-80
2022/11/18 02:46:20;;;;;;;10.65;6.57;;;;;;;8.21;100.00;99094.53;4996640;28;20054;-79
2022/11/18 02:48:50;;;;;;;12.25;6.50;;;;;;;8.20;100.00;99092.13;4996064;28;20196;-80
2022/11/18 02:51:20;;;;;;;12.77;7.18;;;;;;;8.24;100.00;99088.97;4996650;28;20042;-81
2022/11/18 02:53:49;;;;;;;12.60;7.20;;;;;;;8.23;100.00;99096.97;4996957;28;20055;-81
2022/11/18 02:56:18;;;;;;;13.00;7.05;;;;;;;8.23;100.00;99089.97;4996483;28;20568;-80
2022/11/18 02:58:44;;;;;;;14.48;7.75;;;;;;;8.21;100.00;99089.31;4994716;28;20092;-79
2022/11/18 03:01:19;;;;;;;9.27;7.22;;;;;;;8.21;100.00;99097.16;4993911;28;20450;-79
2022/11/18 03:03:49;;;;;;;14.77;8.05;;;;;;;8.17;100.00;99106.31;4995438;28;20061;-78
2022/11/18 03:06:28;;;;;;;12.65;7.88;;;;;;;8.15;100.00;99110.06;4994660;28;20050;-77
2022/11/18 03:09:02;;;;;;;14.98;8.30;;;;;;;8.12;100.00;99108.63;4995929;28;20477;-79
2022/11/18 03:11:33;;;;;;;15.00;8.07;;;;;;;8.11;100.00;99106.19;4996983;28;20097;-80
2022/11/18 03:14:16;;;;;;;15.45;8.00;;;;;;;8.12;100.00;99113.03;4998209;28;20081;-80
2022/11/18 03:16:56;;;;;;;11.93;7.53;;;;;;;8.10;100.00;99109.78;4991420;28;20097;-80
2022/11/18 03:19:32;;;;;;;14.02;8.27;;;;;;;8.02;100.00;99112.50;4997405;28;20050;-80
2022/11/18 03:22:09;;;;;;;11.70;7.70;;;;;;;8.04;100.00;99110.50;4998790;28;20050;-80
2022/11/18 03:24:41;;;;;;;17.38;8.10;;;;;;;8.00;100.00;99120.47;4998349;28;20047;-80
2022/11/18 03:27:14;;;;;;;12.23;7.93;;;;;;;7.94;100.00;99115.97;4997639;28;20077;-80
2022/11/18 03:29:48;;;;;;;16.42;8.32;;;;;;;7.93;100.00;99122.97;4997115;28;20141;-80
2022/11/18 03:32:21;;;;;;;15.40;8.73;;;;;;;7.95;100.00;99133.22;4997895;28;20389;-79
2022/11/18 03:34:49;;;;;;;;;;;;;;;7.95;100.00;99125.41;4999805;28;20557;-79
2022/11/18 03:37:18;;;;;;;14.05;8.13;;;;;;;7.92;100.00;99130.97;5000774;28;19922;-79
2022/11/18 03:39:49;;;;;;;12.80;8.25;;;;;;;7.95;100.00;99143.63;5001100;28;20114;-79
2022/11/18 03:42:23;;;;;;;12.25;8.13;;;;;;;7.92;100.00;99149.19;5001278;28;20050;-78
2022/11/18 03:44:52;;;;;;;15.45;8.68;;;;;;;7.90;100.00;99149.38;4998505;28;20046;-79
2022/11/18 03:47:26;;;;;;;16.00;8.77;;;;;;;7.91;100.00;99163.19;4999979;28;20137;-79
2022/11/18 03:49:58;;;;;;;15.82;8.82;;;;;;;7.88;100.00;99153.13;4999471;28;20078;-79
2022/11/18 03:52:29;;;;;;;14.30;8.03;;;;;;;7.79;100.00;99151.56;4999913;28;20110;-79
2022/11/18 03:55:01;;;;;;;19.25;8.50;;;;;;;7.90;100.00;99179.81;4999517;28;20085;-80
2022/11/18 03:57:34;;;;;;;15.88;8.70;;;;;;;7.88;100.00;99169.56;5000387;28;20073;-80
2022/11/18 04:00:07;;;;;;;13.60;8.15;;;;;;;7.93;100.00;99171.66;4999190;28;20070;-80
2022/11/18 04:02:35;;;;;;;;;;;;;;;7.90;100.00;99174.59;4999683;28;20395;-80
2022/11/18 04:05:05;;;;;;;14.85;8.25;;;;;;;7.89;100.00;99181.59;5001630;28;19976;-80
2022/11/18 04:07:37;;;;;;;16.95;7.78;;;;;;;7.91;100.00;99176.22;5001599;28;20054;-79
2022/11/18 04:10:11;;;;;;;17.47;8.20;;;;;;;7.90;100.00;99179.81;5001014;28;20046;-79
2022/11/18 04:12:43;;;;;;;18.40;8.48;;;;;;;7.86;100.00;99178.53;4980579;28;20074;-80
2022/11/18 04:15:11;;;;;;;12.77;8.63;;;;;;;7.88;100.00;99187.00;4986667;28;20085;-79
2022/11/18 04:17:41;;;;;;;22.90;9.90;;;;;;;7.89;100.00;99188.59;5000467;28;20046;-80
2022/11/18 04:20:15;;;;;;;12.52;8.77;;;;;;;7.89;100.00;99191.22;5000395;28;20081;-80
2022/11/18 04:22:41;;;;;;;13.52;8.93;;;;;;;7.85;100.00;99200.34;5000673;28;20046;-79
2022/11/18 04:25:08;;;;;;;15.88;8.60;;;;;;;7.85;100.00;99205.56;5002130;28;20454;-79
2022/11/18 04:27:35;;;;;;;13.88;8.55;;;;;;;7.83;100.00;99197.13;5002759;28;20441;-79
2022/11/18 04:30:02;;;;;;;15.40;9.23;;;;;;;7.93;100.00;99213.31;5004688;28;20107;-79
2022/11/18 04:32:28;;;;;;;16.23;9.48;;;;;;;7.90;100.00;99213.66;5006266;28;20054;-79
2022/11/18 04:34:57;;;;;;;12.45;8.25;;;;;;;7.90;100.00;99217.09;5005245;28;20144;-80
2022/11/18 04:37:23;;;;;;;17.77;8.95;;;;;;;7.86;100.00;99220.22;4999568;28;20085;-79
2022/11/18 04:39:50;;;;;;;15.18;8.80;;;;;;;7.84;100.00;99220.38;4995017;28;20141;-77
2022/11/18 04:42:16;;;;;;;19.48;8.57;;;;;;;7.85;100.00;99223.78;4994966;28;20050;-77
2022/11/18 04:44:43;;;;;;;15.48;8.93;;;;;;;7.85;100.00;99223.78;4996348;28;20058;-77
2022/11/18 04:47:10;;;;;;;17.52;8.32;;;;;;;7.83;100.00;99234.38;4994083;28;20528;-77
2022/11/18 04:49:36;;;;;;;14.35;8.45;;;;;;;7.81;100.00;99225.94;4996733;28;20086;-79
2022/11/18 04:52:05;;;;;;;17.25;10.00;;;;;;;7.77;100.00;99236.84;4998073;28;20137;-78
2022/11/18 04:54:31;;;;;;;17.17;8.90;;;;;;;7.74;100.00;99234.59;4999421;28;20085;-78
2022/11/18 04:56:58;;;;;;;15.25;8.77;;;;;;;7.71;100.00;99240.16;5000954;28;20078;-79
2022/11/18 04:59:27;;;;;;;14.25;9.18;;;;;;;7.71;100.00;99240.16;5000353;28;20054;-78
2022/11/18 05:01:55;;;;;;;13.90;8.77;;;;;;;7.66;100.00;99241.47;4999178;28;20054;-78
2022/11/18 05:04:24;;;;;;;16.50;8.75;;;;;;;7.63;100.00;99244.41;4999518;28;20046;-80
2022/11/18 05:06:51;;;;;;;17.73;9.02;;;;;;;7.62;100.00;99240.19;4999286;28;20481;-80
2022/11/18 05:09:20;;;;;;;15.18;9.45;;;;;;;7.53;100.00;99241.22;4997966;28;20062;-80
2022/11/18 05:14:31;;;;;;;13.60;8.52;;;;;;;7.50;100.00;99233.75;4998595;28;20060;-79
2022/11/18 05:17:00;;;;;;;16.13;9.02;;;;;;;7.52;100.00;99247.41;4998052;28;20081;-79
2022/11/18 05:19:26;;;;;;;16.02;8.35;;;;;;;7.49;100.00;99242.56;4997954;28;20070;-81
2022/11/18 05:21:54;;;;;;;13.50;8.82;;;;;;;7.47;100.00;99249.72;4998251;28;20129;-79
2022/11/18 05:24:23;;;;;;;18.80;8.73;;;;;;;7.38;100.00;99250.72;4996001;28;20050;-77
2022/11/18 05:26:50;;;;;;;13.38;8.43;;;;;;;7.32;100.00;99256.59;4997492;28;20405;-78
2022/11/18 05:29:18;;;;;;;13.68;8.25;;;;;;;7.28;100.00;99256.13;4996702;28;20061;-78
2022/11/18 05:31:45;;;;;;;15.65;8.35;;;;;;;7.21;100.00;99265.56;4996502;28;20082;-79
2022/11/18 05:34:11;;;;;;;14.82;7.57;;;;;;;7.18;100.00;99265.91;4997665;28;20106;-79
2022/11/18 05:36:41;;;;;;;11.80;7.00;;;;;;;7.14;100.00;99269.00;4997840;28;20110;-80
2022/11/18 05:39:08;;;;;;;11.55;7.20;;;;;;;7.14;100.00;99274.22;4998316;28;20078;-81
2022/11/18 05:44:20;;;;;;;13.23;6.68;;;;;;;7.08;100.00;99265.31;4998661;28;20583;-81
2022/11/18 05:46:46;;;;;;;17.42;6.72;;;;;;;7.09;100.00;99268.72;4998338;28;20129;-78
2022/11/18 05:49:13;;;;;;;13.98;7.20;;;;;;;7.11;100.00;99269.34;4998615;28;20082;-80
2022/11/18 05:51:41;;;;;;;14.50;6.82;;;;;;;6.90;100.00;99246.50;5016391;23;20132;-77
2022/11/18 05:54:17;;;;;;;16.52;7.22;;;;;;;6.91;100.00;99258.53;5004459;28;20876;-79
2022/11/18 06:00:00;;;;;;;15.20;7.20;;;;;;;7.11;100.00;99285.75;5012477;28;20153;-79
2022/11/18 06:02:29;;;;;;;11.35;6.55;;;;;;;7.17;100.00;99279.09;4993131;28;20078;-77
2022/11/18 06:05:06;;;;;;;13.10;6.70;;;;;;;7.19;100.00;99283.16;4998402;28;20061;-79
2022/11/18 06:07:39;;;;;;;10.57;5.70;;;;;;;7.23;100.00;99286.22;4995801;28;20057;-78
2022/11/18 06:10:07;;;;;;;11.23;6.50;;;;;;;7.29;100.00;99290.75;4982041;28;20118;-77
2022/11/18 06:12:39;;;;;;;12.18;6.18;;;;;;;7.27;100.00;99292.72;4981541;28;20082;-76
2022/11/18 06:15:10;;;;;;;11.32;6.40;;;;;;;7.25;100.00;99297.28;4985888;28;20070;-80
2022/11/18 06:17:42;;;;;;;16.48;6.70;;;;;;;7.25;100.00;99292.88;4999775;28;20129;-79
2022/11/18 06:20:10;;;;;;;10.32;6.40;;;;;;;7.25;100.00;99302.47;4997381;28;20138;-79
2022/11/18 06:22:36;;;;;;;11.27;6.70;;;;;;;7.24;100.00;99321.66;4997567;28;20045;-77
2022/11/18 06:25:04;;;;;;;12.38;6.32;;;;;;;7.24;100.00;99314.69;4996710;28;20089;-79
2022/11/18 06:27:31;;;;;;;13.52;7.07;;;;;;;7.22;100.00;99321.84;4995425;28;20085;-78
2022/11/18 06:29:59;;;;;;;17.40;7.68;;;;;;;7.24;100.00;99326.88;4986508;28;20049;-79
2022/11/18 06:32:25;;;;;;;13.15;7.43;;;;;;;7.22;100.00;99334.03;4974418;28;20047;-79
2022/11/18 06:34:52;;;;;;;11.20;7.40;;;;;;;7.29;100.00;99345.41;4973723;28;20153;-79
2022/11/18 06:37:20;;;;;;;13.85;7.63;;;;;;;7.25;100.00;99346.72;4973533;28;20085;-78
2022/11/18 06:39:47;;;;;;;12.70;7.40;;;;;;;7.24;100.00;99348.50;4973125;28;20061;-79
2022/11/18 06:43:37;;;;;;;15.68;6.93;;;;;;;7.25;100.00;99359.72;4975152;28;20554;-79
2022/11/18 06:45:01;;;;;;;10.85;6.32;;;;;;;7.28;100.00;99346.38;4978107;28;20493;-77
2022/11/18 06:47:27;;;;;;;15.23;7.03;;;;;;;7.27;100.00;99345.56;4992449;28;20572;-78
2022/11/18 06:49:54;;;;;;;12.32;6.63;;;;;;;7.21;100.00;99353.22;4993460;28;20133;-79
2022/11/18 06:52:21;;;;;;;12.10;6.35;;;;;;;7.23;100.00;99361.69;4994318;28;20056;-79
2022/11/18 06:54:48;;;;;;;13.55;6.38;;;;;;;7.21;100.00;99371.44;4983108;28;20177;-78
2022/11/18 06:57:15;;;;;;;14.80;6.45;;;;;;;7.21;100.00;99359.22;4973807;28;20102;-79
2022/11/18 06:59:41;;;;;;;13.13;6.38;;;;;;;7.28;100.00;99372.41;4972901;28;20054;-77
2022/11/18 07:02:09;;;;;;;12.77;6.68;;;;;;;7.29;100.00;99379.22;4973620;28;20051;-75
2022/11/18 07:04:38;;;;;;;9.00;6.32;;;;;;;7.28;100.00;99386.22;4978865;28;20405;-77
2022/11/18 07:07:05;;;;;;;9.93;6.32;;;;;;;7.34;100.00;99379.56;4991407;28;20592;-75
2022/11/18 07:09:31;;;;;;;8.77;6.40;;;;;;;7.36;100.00;99393.22;4990549;28;20158;-77
2022/11/18 07:11:58;;;;;;;13.25;6.97;;;;;;;7.36;100.00;99395.81;4975533;28;20047;-77
2022/11/18 07:14:24;;;;;;;13.93;6.50;;;;;;;7.39;100.00;99397.28;4973311;28;20109;-79
2022/11/18 07:16:51;;;;;;;12.57;7.15;;;;;;;7.43;100.00;99391.56;4981386;28;20446;-78
2022/11/18 07:19:19;;;;;;;10.88;6.22;;;;;;;7.48;100.00;99402.31;4990529;28;20058;-78
2022/11/18 07:21:46;;;;;;;9.95;6.20;;;;;;;7.53;100.00;99414.81;4975243;28;20046;-79
2022/11/18 07:24:14;;;;;;;12.07;6.03;;;;;;;7.61;100.00;99409.56;4972022;28;20054;-78
2022/11/18 07:26:42;;;;;;;10.23;5.93;;;;;;;7.63;100.00;99412.81;4972384;28;20153;-76
2022/11/18 07:29:09;;;;;;;11.18;6.40;;;;;;;7.65;100.00;99422.09;4975425;28;20121;-79
2022/11/18 07:31:38;;;;;;;9.85;6.28;;;;;;;7.65;100.00;99423.88;4973391;28;20081;-78
2022/11/18 07:34:05;;;;;;;10.80;6.13;;;;;;;7.67;100.00;99429.72;4973039;28;20054;-79
2022/11/18 07:36:33;;;;;;;11.02;6.28;;;;;;;7.72;100.00;99429.25;4973348;28;20125;-77
2022/11/18 07:39:00;;;;;;;9.57;6.18;;;;;;;7.74;100.00;99432.50;4987195;28;20476;-79
2022/11/18 07:41:29;;;;;;;9.35;6.40;;;;;;;7.79;100.00;99431.00;4975477;28;20130;-79
2022/11/18 07:43:56;;;;;;;13.63;6.60;;;;;;;7.83;100.00;99437.50;4972385;28;20093;-80
2022/11/18 07:46:31;;;;;;;12.75;6.93;;;;;;;7.88;100.00;99434.41;4979551;28;20050;-80
2022/11/18 07:48:59;;;;;;;10.07;6.28;;;;;;;8.08;100.00;99451.25;4961304;28;20043;-80
2022/11/18 07:51:27;;;;;;;11.50;5.95;;;;;;;8.15;100.00;99444.38;4974960;28;20109;-79
2022/11/18 07:53:55;;;;;;;14.05;6.28;;;;;;;8.13;100.00;99453.34;4976707;28;20436;-79
2022/11/18 07:56:23;;;;;;;12.63;6.10;;;;;;;8.20;100.00;99457.72;4977738;28;20042;-79
2022/11/18 07:58:54;;;;;;;30.77;15.50;;;;;;;8.43;100.00;99459.63;4974327;28;20596;-79
2022/11/18 08:01:23;;;;;;;14.88;9.23;;;;;;;8.41;100.00;99448.56;4966008;28;20137;-81
2022/11/18 08:03:51;;;;;;;8.90;5.82;;;;;;;8.36;100.00;99451.66;4975639;28;20465;-79
2022/11/18 08:06:19;;;;;;;12.10;5.22;;;;;;;8.32;100.00;99461.63;4969381;28;20134;-80
2022/11/18 08:08:46;;;;;;;10.23;5.57;;;;;;;8.40;100.00;99452.97;4972147;28;20118;-78
2022/11/18 08:11:17;;;;;;;10.60;5.78;;;;;;;8.51;100.00;99454.34;4974520;28;20130;-79
2022/11/18 08:13:44;;;;;;;13.35;6.22;;;;;;;8.52;100.00;99463.78;4974477;28;20082;-79
2022/11/18 08:16:14;;;;;;;11.52;5.65;;;;;;;8.52;100.00;99455.97;4969745;28;20098;-79
2022/11/18 08:18:40;;;;;;;10.63;6.07;;;;;;;8.63;100.00;99466.03;4974906;28;20501;-79
2022/11/18 08:21:07;;;;;;;9.35;6.07;;;;;;;8.61;100.00;99460.97;4980089;28;20105;-79
2022/11/18 08:23:34;;;;;;;13.30;6.45;;;;;;;8.61;100.00;99462.78;4987807;28;20089;-78
2022/11/18 08:26:03;;;;;;;11.20;6.15;;;;;;;8.60;100.00;99476.78;4977719;28;20135;-77
2022/11/18 08:28:32;;;;;;;10.77;5.90;;;;;;;8.58;100.00;99470.94;4988449;28;20054;-79
2022/11/18 08:30:59;;;;;;;10.48;5.50;;;;;;;8.53;100.00;99479.25;4991193;28;20581;-79
2022/11/18 08:33:25;;;;;;;10.52;5.30;;;;;;;8.52;100.00;99480.25;4955760;29;20631;-79
2022/11/18 08:35:52;;;;;;;13.55;5.75;;;;;;;8.64;100.00;99484.09;4958699;28;20086;-78
2022/11/18 08:38:19;;;;;;;9.90;5.30;;;;;;;8.72;100.00;99485.84;4994995;28;20129;-79
2022/11/18 08:40:47;;;;;;;13.60;5.30;;;;;;;8.79;100.00;99486.78;4996461;28;20054;-78
2022/11/18 08:43:14;;;;;;;9.10;5.18;;;;;;;8.97;100.00;99489.94;4999153;28;20513;-81
2022/11/18 08:45:42;;;;;;;11.20;4.97;;;;;;;9.04;100.00;99487.44;4986683;28;20051;-80
2022/11/18 08:48:09;;;;;;;9.73;5.18;;;;;;;9.15;100.00;99481.00;4977801;28;20054;-79
2022/11/18 08:50:35;;;;;;;7.55;5.03;;;;;;;9.31;100.00;99489.53;4977077;28;20181;-77
2022/11/18 08:53:02;;;;;;;19.08;11.88;;;;;;;9.52;100.00;99491.44;4980666;28;20114;-80
2022/11/18 08:55:29;;;;;;;39.38;31.05;;;;;;;9.75;100.00;99495.84;4995306;28;20706;-80
2022/11/18 08:57:55;;;;;;;14.15;6.75;;;;;;;9.91;100.00;99503.50;4999381;28;20453;-80
2022/11/18 09:00:22;;;;;;;11.73;5.45;;;;;;;9.99;100.00;99495.56;4995806;28;20137;-80
2022/11/18 09:02:53;;;;;;;10.70;4.53;;;;;;;10.01;100.00;99498.81;5000606;28;20093;-79
2022/11/18 09:05:20;;;;;;;8.60;4.30;;;;;;;10.14;100.00;99506.84;4997746;28;20580;-80
2022/11/18 09:07:46;;;;;;;9.93;4.38;;;;;;;10.13;99.34;99509.63;4996149;28;20051;-79
2022/11/18 09:10:14;;;;;;;8.57;4.00;;;;;;;10.11;98.96;99504.59;4994886;28;20133;-79
2022/11/18 09:12:41;;;;;;;8.50;4.65;;;;;;;10.07;98.47;99505.13;4980251;28;20050;-80
2022/11/18 09:15:08;;;;;;;9.73;4.38;;;;;;;10.08;98.20;99504.13;4977767;28;20185;-79
2022/11/18 09:17:35;;;;;;;14.13;4.80;;;;;;;9.99;98.56;99511.25;4993541;28;20078;-80
2022/11/18 09:20:03;;;;;;;9.45;4.75;;;;;;;10.03;98.04;99501.25;4995090;28;20046;-80
2022/11/18 09:22:30;;;;;;;12.88;4.75;;;;;;;9.99;98.16;99501.59;4993797;28;20117;-80
2022/11/18 09:24:56;;;;;;;8.93;4.35;;;;;;;10.05;98.03;99509.72;4977193;28;20137;-79
2022/11/18 09:27:23;;;;;;;11.35;4.43;;;;;;;9.90;98.18;99512.34;4990354;28;20129;-79
2022/11/18 09:29:49;;;;;;;11.23;3.63;;;;;;;9.91;98.25;99519.19;4994987;28;20089;-80
2022/11/18 09:32:16;;;;;;;8.43;4.60;;;;;;;9.92;98.15;99510.38;4993154;28;20070;-78
2022/11/18 09:34:43;;;;;;;11.23;5.68;;;;;;;9.86;97.71;99517.13;4995149;28;20081;-78
2022/11/18 09:37:11;;;;;;;9.18;4.57;;;;;;;9.86;97.83;99517.13;4994277;28;20145;-80
2022/11/18 09:39:37;;;;;;;13.75;4.38;;;;;;;9.80;97.54;99524.84;4985489;28;20133;-80
2022/11/18 09:42:20;;;;;;;11.55;4.00;;;;;;;9.82;98.10;99525.47;4977509;28;20074;-80
2022/11/18 09:45:02;;;;;;;10.82;4.32;;;;;;;9.83;97.56;99538.38;4978875;28;20516;-80
2022/11/18 09:47:30;;;;;;;14.52;4.50;;;;;;;9.95;97.38;99536.94;4975802;28;20074;-79
2022/11/18 09:49:59;;;;;;;14.90;4.60;;;;;;;10.11;97.33;99542.97;4975240;28;20115;-80
2022/11/18 09:52:33;;;;;;;7.38;4.20;;;;;;;10.19;96.58;99540.28;4977744;28;20137;-81
2022/11/18 09:54:59;;;;;;;12.02;4.72;;;;;;;10.22;96.03;99543.38;4986979;28;20145;-80
2022/11/18 09:57:39;;;;;;;11.15;4.45;;;;;;;10.27;95.52;99551.50;4989858;28;20110;-80
2022/11/18 10:00:14;;;;;;;11.38;4.63;;;;;;;10.28;95.12;99547.09;4975230;28;20047;-79
2022/11/18 10:02:50;;;;;;;9.65;4.03;;;;;;;10.36;95.05;99554.03;4975419;28;20126;-80
2022/11/18 10:05:19;;;;;;;11.02;4.13;;;;;;;10.47;94.30;99554.38;4976081;28;20089;-80
2022/11/18 10:07:59;;;;;;;12.07;3.95;;;;;;;10.46;93.36;99551.94;4975158;28;20139;-80
2022/11/18 10:10:37;;;;;;;10.85;3.75;;;;;;;10.62;93.43;99549.13;4975002;28;20565;-78
2022/11/18 10:13:12;;;;;;;7.45;3.65;;;;;;;10.61;93.36;99550.13;4974899;28;20106;-79
2022/11/18 10:15:52;;;;;;;8.60;3.50;;;;;;;10.72;92.73;99560.13;4966202;28;20075;-79
2022/11/18 10:18:27;;;;;;;8.45;3.30;;;;;;;10.76;91.80;99550.94;4955450;29;20066;-79
2022/11/18 10:21:00;;;;;;;10.88;3.67;;;;;;;10.85;91.63;99557.69;4956675;29;20110;-78
2022/11/18 10:23:33;;;;;;;7.22;3.63;;;;;;;10.86;90.41;99564.53;4957263;29;20125;-80
2022/11/18 10:26:00;;;;;;;12.30;3.53;;;;;;;10.82;89.91;99565.91;4978979;28;20046;-81
2022/11/18 10:28:29;;;;;;;15.68;3.42;;;;;;;10.91;90.26;99570.00;4991711;28;20085;-77
2022/11/18 10:31:04;;;;;;;12.02;3.38;;;;;;;10.94;89.65;99563.59;4996247;28;20425;-80
2022/11/18 10:33:30;;;;;;;7.50;3.05;;;;;;;10.97;89.02;99576.31;4996000;28;20187;-80
2022/11/18 10:36:19;;;;;;;9.90;3.55;;;;;;;10.98;88.71;99576.13;4995966;28;20081;-80
2022/11/18 10:38:47;;;;;;;10.88;3.38;;;;;;;10.97;88.42;99579.75;4995412;28;20074;-79
2022/11/18 10:41:16;;;;;;;15.30;4.88;;;;;;;10.99;88.81;99576.94;4995161;28;20118;-80
2022/11/18 10:43:47;;;;;;;9.60;3.42;;;;;;;10.93;88.37;99588.16;4994893;28;20051;-81
2022/11/18 10:46:25;;;;;;;7.78;3.55;;;;;;;10.94;88.27;99587.97;4996116;28;20074;-81
2022/11/18 10:49:14;;;;;;;8.70;3.70;;;;;;;11.00;88.25;99596.06;4994402;28;20057;-80
2022/11/18 10:51:42;;;;;;;10.02;3.22;;;;;;;11.12;88.24;99592.00;4994380;28;20046;-79
2022/11/18 10:54:16;;;;;;;10.93;3.30;;;;;;;11.25;87.55;99586.91;4994735;28;20062;-80
2022/11/18 10:56:52;;;;;;;13.13;4.10;;;;;;;11.28;87.43;99586.53;4994206;28;20612;-80
2022/11/18 10:59:28;;;;;;;14.20;3.45;;;;;;;11.43;87.19;99582.03;4995085;28;20072;-80
2022/11/18 11:02:03;;;;;;;11.43;4.10;;;;;;;11.45;86.38;99593.13;4994256;28;20137;-80
2022/11/18 11:04:31;;;;;;;6.63;3.28;;;;;;;11.37;86.81;99587.19;4998054;28;20465;-80
2022/11/18 11:06:58;;;;;;;9.23;3.33;;;;;;;11.36;87.00;99593.44;5001564;28;20090;-83
2022/11/18 11:09:28;;;;;;;10.98;3.33;;;;;;;11.44;86.62;99588.91;4996144;28;20046;-80
2022/11/18 11:11:58;;;;;;;14.07;3.70;;;;;;;11.50;86.72;99597.81;4996604;28;20065;-80
2022/11/18 11:14:31;;;;;;;10.70;3.72;;;;;;;11.63;86.28;99596.13;4996806;28;20108;-81
2022/11/18 11:17:02;;;;;;;12.68;4.03;;;;;;;11.81;85.88;99589.69;4996927;28;20047;-80
2022/11/18 11:19:38;;;;;;;11.65;4.05;;;;;;;12.02;84.75;99599.31;4996324;28;20077;-80
2022/11/18 11:22:11;;;;;;;14.90;5.22;;;;;;;12.27;84.17;99595.25;4998078;28;20065;-80
2022/11/18 11:24:42;;;;;;;15.70;3.60;;;;;;;12.38;83.08;99604.38;4999460;28;20097;-83
2022/11/18 11:27:26;;;;;;;13.80;4.22;;;;;;;12.23;83.38;99601.88;5000865;28;20234;-79
2022/11/18 11:30:10;;;;;;;10.73;3.45;;;;;;;12.13;83.75;99601.41;4998012;28;20085;-81
2022/11/18 11:33:17;;;;;;;11.07;3.55;;;;;;;11.80;84.61;99607.22;4997712;28;20050;-81
2022/11/18 11:35:51;;;;;;;14.85;3.75;;;;;;;11.54;85.62;99602.50;4997667;28;20081;-80
2022/11/18 11:38:28;;;;;;;11.07;3.42;;;;;;;11.43;86.59;99603.00;4996922;28;20677;-80
2022/11/18 11:41:08;;;;;;;16.45;3.55;;;;;;;11.34;87.06;99590.22;4996977;28;20051;-80
2022/11/18 11:43:50;;;;;;;10.65;3.92;;;;;;;11.15;87.88;99596.88;4997763;28;20046;-79
2022/11/18 11:46:27;;;;;;;11.88;3.65;;;;;;;11.11;88.85;99595.59;4997550;28;20133;-81
2022/11/18 11:49:07;;;;;;;10.63;3.40;;;;;;;11.17;88.88;99597.50;4996323;28;20081;-81
2022/11/18 11:51:40;;;;;;;10.32;3.70;;;;;;;11.14;87.99;99603.09;5024655;23;20409;-81
2022/11/18 11:54:12;;;;;;;;;;;;;;;11.05;86.84;99605.00;5015695;28;20118;-82
2022/11/18 11:56:44;;;;;;;7.57;3.80;;;;;;;10.90;86.79;99589.31;5015764;28;20327;-80
2022/11/18 11:59:24;;;;;;;12.77;3.60;;;;;;;10.95;86.82;99602.66;5018353;28;20089;-82
2022/11/18 12:01:59;;;;;;;10.05;3.10;;;;;;;10.95;87.09;99602.66;5019312;28;20050;-81